Time;durP1;ratioP1;P1;durP2;ratioP2;P2;SDS_P1;SDS_P2;PMS_P1;PMS_P2;Temp;Humidity;BMP_temperature;BMP_pressure;BME280_temperature;BME280_humidity;BME280_pressure;Samples;Min_cycle;Max_cycle;Signal;HPM_P1;HPM_P2
2023/08/18 00:00:15;;;;;;;8.75;2.50;;;;;;;18.06;90.08;92834.19;5073502;28;20336;-78
2023/08/18 00:02:42;;;;;;;6.93;2.20;;;;;;;18.03;90.84;92834.06;5073459;28;20036;-77
2023/08/18 00:05:08;;;;;;;9.80;2.22;;;;;;;17.96;91.58;92839.88;5074292;28;20478;-77
2023/08/18 00:07:34;;;;;;;7.40;2.28;;;;;;;17.94;91.60;92836.00;5074460;28;20021;-78
2023/08/18 00:10:03;;;;;;;9.88;2.30;;;;;;;17.88;91.76;92832.78;5074491;28;20035;-78
2023/08/18 00:12:29;;;;;;;10.02;2.30;;;;;;;17.83;92.64;92828.47;5056183;28;20471;-78
2023/08/18 00:14:55;;;;;;;10.32;2.40;;;;;;;17.82;92.90;92828.78;5074066;28;20478;-78
2023/08/18 00:17:21;;;;;;;9.55;2.55;;;;;;;17.82;93.37;92823.47;5074309;28;20025;-78
2023/08/18 00:19:47;;;;;;;6.30;1.98;;;;;;;17.81;93.09;92824.53;5074928;28;20649;-78
2023/08/18 00:22:13;;;;;;;10.82;2.50;;;;;;;17.80;93.39;92821.09;5069906;28;20044;-78
2023/08/18 00:24:38;;;;;;;6.97;2.85;;;;;;;17.79;94.22;92827.53;5072289;28;20033;-78
2023/08/18 00:27:04;;;;;;;8.50;2.28;;;;;;;17.75;94.79;92823.19;5071592;28;20044;-77
2023/08/18 00:29:29;;;;;;;10.35;2.30;;;;;;;17.68;94.86;92829.75;5055646;28;20070;-78
2023/08/18 00:31:55;;;;;;;7.00;2.35;;;;;;;17.68;94.72;92829.00;5071987;28;20128;-77
2023/08/18 00:34:21;;;;;;;11.90;3.17;;;;;;;17.61;95.10;92828.72;5070388;28;20540;-77
2023/08/18 00:36:47;;;;;;;9.20;2.58;;;;;;;17.58;93.75;92829.34;5071859;28;21518;-77
2023/08/18 00:39:12;;;;;;;11.65;2.42;;;;;;;17.56;93.74;92827.06;5055195;28;20032;-77
2023/08/18 00:41:38;;;;;;;11.05;2.17;;;;;;;17.56;93.56;92821.75;5073185;28;20041;-77
2023/08/18 00:44:03;;;;;;;13.10;2.33;;;;;;;17.55;93.90;92824.72;5071162;28;20028;-77
2023/08/18 00:46:30;;;;;;;7.13;2.00;;;;;;;17.52;94.23;92820.84;5072151;28;20063;-78
2023/08/18 00:49:02;;;;;;;7.78;2.42;;;;;;;17.52;93.67;92812.91;5071742;28;20098;-77
2023/08/18 00:51:28;;;;;;;;;;;;;;;17.54;93.91;92817.84;5072521;28;20036;-77
2023/08/18 00:53:54;;;;;;;10.93;2.38;;;;;;;17.54;95.91;92821.31;5073171;28;20470;-78
2023/08/18 00:56:21;;;;;;;10.93;2.38;;;;;;;17.52;96.46;92809.47;5070691;28;20037;-77
2023/08/18 00:58:47;;;;;;;6.32;2.20;;;;;;;17.54;97.38;92818.66;5072793;28;20035;-77
2023/08/18 01:01:13;;;;;;;8.38;2.42;;;;;;;17.51;97.32;92819.28;5072617;28;20420;-77
2023/08/18 01:03:39;;;;;;;7.45;2.40;;;;;;;17.49;97.48;92818.81;5070352;28;20051;-77
2023/08/18 01:06:05;;;;;;;8.85;2.25;;;;;;;17.46;97.46;92820.22;5054883;28;20066;-77
2023/08/18 01:08:31;;;;;;;10.88;2.30;;;;;;;17.43;97.47;92817.47;5072773;28;20028;-77
2023/08/18 01:11:11;;;;;;;9.43;3.13;;;;;;;17.41;97.70;92822.31;5067186;28;20037;-77
2023/08/18 01:13:54;;;;;;;7.53;2.40;;;;;;;17.38;96.86;92810.50;5070762;28;20028;-77
2023/08/18 01:16:27;;;;;;;15.05;3.40;;;;;;;17.34;96.42;92814.06;5069178;28;20036;-77
2023/08/18 01:18:54;;;;;;;11.40;2.67;;;;;;;17.35;96.94;92805.06;5072258;28;20429;-77
2023/08/18 01:21:23;;;;;;;9.00;2.30;;;;;;;17.32;97.25;92805.72;5071729;28;20043;-78
2023/08/18 01:23:49;;;;;;;7.72;2.00;;;;;;;17.35;97.65;92805.81;5070216;28;20068;-78
2023/08/18 01:26:15;;;;;;;12.07;3.17;;;;;;;17.32;97.67;92800.41;5070356;28;20577;-78
2023/08/18 01:28:43;;;;;;;8.45;2.45;;;;;;;17.32;96.96;92800.41;5071042;28;20024;-78
2023/08/18 01:31:12;;;;;;;9.48;2.08;;;;;;;17.32;96.29;92800.41;5071371;28;20489;-78
2023/08/18 01:34:00;;;;;;;10.32;2.47;;;;;;;17.29;96.95;92807.09;5070862;28;20499;-77
2023/08/18 01:36:32;;;;;;;9.65;2.30;;;;;;;17.24;97.28;92800.13;5072387;28;20587;-78
2023/08/18 01:38:59;;;;;;;;;;;;;;;17.23;97.70;92801.22;5072791;28;20032;-77
2023/08/18 01:41:26;;;;;;;9.18;2.22;;;;;;;17.19;97.77;92797.66;5070705;28;19928;-77
2023/08/18 01:43:52;;;;;;;10.00;2.10;;;;;;;17.19;97.26;92797.66;5070063;28;20056;-78
2023/08/18 01:46:17;;;;;;;10.98;2.60;;;;;;;17.19;96.71;92802.19;5069956;28;20079;-77
2023/08/18 01:48:43;;;;;;;5.80;2.15;;;;;;;17.18;97.13;92795.31;5070064;28;20233;-77
2023/08/18 01:51:09;;;;;;;7.30;2.80;;;;;;;17.16;96.38;92797.53;5072217;28;20169;-78
2023/08/18 01:53:34;;;;;;;12.05;2.78;;;;;;;17.17;96.32;92791.91;5052918;28;20386;-78
2023/08/18 01:56:02;;;;;;;8.63;2.72;;;;;;;17.17;96.56;92796.44;5070599;28;20118;-78
2023/08/18 01:58:29;;;;;;;9.98;2.75;;;;;;;17.20;96.11;92793.13;5071750;28;20044;-77
2023/08/18 02:00:55;;;;;;;11.75;2.33;;;;;;;17.19;95.84;92792.38;5070888;28;20040;-78
2023/08/18 02:03:22;;;;;;;9.45;3.53;;;;;;;17.19;96.22;92792.38;5071684;28;20029;-77
2023/08/18 02:05:47;;;;;;;11.18;3.45;;;;;;;17.18;96.19;92790.03;5056933;28;20036;-78
2023/08/18 02:08:13;;;;;;;12.25;2.90;;;;;;;17.16;96.81;92781.66;5072282;28;20486;-77
2023/08/18 02:10:39;;;;;;;12.90;2.83;;;;;;;17.14;97.41;92792.56;5070646;28;20036;-77
2023/08/18 02:13:05;;;;;;;13.23;3.00;;;;;;;17.13;97.35;92792.88;5063304;28;20037;-77
2023/08/18 02:15:31;;;;;;;10.27;2.95;;;;;;;17.14;98.08;92783.84;5069952;28;20033;-77
2023/08/18 02:17:57;;;;;;;10.50;2.60;;;;;;;17.13;97.96;92788.34;5071335;28;20071;-77
2023/08/18 02:20:23;;;;;;;10.70;2.55;;;;;;;17.13;96.96;92795.50;5072136;28;20032;-78
2023/08/18 02:22:49;;;;;;;15.95;2.78;;;;;;;17.13;96.79;92788.34;5070823;28;20098;-78
2023/08/18 02:25:14;;;;;;;8.48;2.55;;;;;;;17.14;96.76;92784.63;5071343;28;20033;-78
2023/08/18 02:27:41;;;;;;;9.20;2.70;;;;;;;17.15;97.04;92788.81;5071542;28;20037;-77
2023/08/18 02:30:07;;;;;;;10.30;2.83;;;;;;;17.15;97.75;92788.81;5071246;28;20041;-78
2023/08/18 02:32:33;;;;;;;9.57;2.72;;;;;;;17.13;98.03;92783.06;5070476;28;20029;-77
2023/08/18 02:34:58;;;;;;;11.20;2.55;;;;;;;17.14;97.91;92789.16;5071420;28;20375;-78
2023/08/18 02:37:24;;;;;;;9.05;2.65;;;;;;;17.12;97.60;92791.34;5069524;28;20494;-77
2023/08/18 02:39:50;;;;;;;11.40;2.90;;;;;;;17.10;97.45;92788.22;5071470;28;20090;-77
2023/08/18 02:42:15;;;;;;;8.70;2.70;;;;;;;17.09;98.62;92792.75;5071483;28;20119;-77
2023/08/18 02:44:41;;;;;;;7.85;2.67;;;;;;;17.05;98.43;92789.94;5069619;28;21289;-77
2023/08/18 02:47:07;;;;;;;12.10;3.50;;;;;;;17.06;98.47;92791.50;5070981;28;20075;-77
2023/08/18 02:49:33;;;;;;;8.48;2.90;;;;;;;17.08;99.17;92785.88;5073966;28;20052;-78
2023/08/18 02:51:58;;;;;;;11.55;2.70;;;;;;;17.08;99.01;92779.84;5078780;28;20051;-78
2023/08/18 02:54:24;;;;;;;9.30;3.03;;;;;;;17.09;98.99;92782.16;5078203;28;20054;-77
2023/08/18 02:56:50;;;;;;;6.88;2.60;;;;;;;17.10;99.07;92781.06;5084146;28;20032;-80
2023/08/18 02:59:17;;;;;;;11.65;2.80;;;;;;;17.11;99.19;92777.31;5080277;28;20046;-77
2023/08/18 03:01:43;;;;;;;13.02;2.97;;;;;;;17.12;99.25;92770.16;5078003;28;20110;-77
2023/08/18 03:04:08;;;;;;;9.98;3.35;;;;;;;17.12;99.25;92776.22;5077099;28;20038;-77
2023/08/18 03:06:34;;;;;;;8.43;3.08;;;;;;;17.11;99.85;92769.38;5075696;28;20040;-77
2023/08/18 03:08:59;;;;;;;6.63;2.60;;;;;;;17.12;100.00;92776.22;5091381;28;20060;-77
2023/08/18 03:11:25;;;;;;;8.25;2.88;;;;;;;17.08;100.00;92769.25;5077271;28;20020;-80
2023/08/18 03:13:51;;;;;;;11.00;3.20;;;;;;;17.03;100.00;92767.56;5076582;28;20042;-77
2023/08/18 03:16:18;;;;;;;11.82;2.75;;;;;;;17.02;100.00;92766.00;5073490;28;20067;-77
2023/08/18 03:18:44;;;;;;;9.43;2.90;;;;;;;16.99;100.00;92764.00;5074706;28;20031;-77
2023/08/18 03:21:10;;;;;;;15.43;2.78;;;;;;;17.01;100.00;92772.41;5073741;28;20028;-78
2023/08/18 03:23:36;;;;;;;8.73;2.78;;;;;;;17.01;100.00;92769.75;5073515;28;20052;-77
2023/08/18 03:26:03;;;;;;;11.18;2.92;;;;;;;17.04;100.00;92777.03;5074644;28;20047;-78
2023/08/18 03:28:31;;;;;;;11.48;3.20;;;;;;;17.03;100.00;92775.50;5073365;28;20031;-77
2023/08/18 03:30:59;;;;;;;13.30;3.17;;;;;;;16.97;100.00;92774.13;5090942;28;20135;-77
2023/08/18 03:33:25;;;;;;;11.88;3.03;;;;;;;16.92;100.00;92774.31;5067833;28;20032;-77
2023/08/18 03:35:51;;;;;;;12.02;3.15;;;;;;;16.87;100.00;92774.50;5073447;28;20410;-78
2023/08/18 03:38:17;;;;;;;9.35;2.60;;;;;;;16.86;100.00;92778.97;5091021;28;20043;-77
2023/08/18 03:40:42;;;;;;;12.15;3.40;;;;;;;16.86;100.00;92786.91;5074416;28;20032;-77
2023/08/18 03:43:08;;;;;;;10.18;3.05;;;;;;;16.88;100.00;92778.69;5073953;28;20044;-77
2023/08/18 03:45:34;;;;;;;12.77;3.10;;;;;;;16.86;100.00;92781.63;5073877;28;20029;-78
2023/08/18 03:48:00;;;;;;;6.95;2.78;;;;;;;16.84;100.00;92778.53;5073763;28;20078;-78
2023/08/18 03:50:28;;;;;;;10.43;3.65;;;;;;;16.85;100.00;92782.72;5089796;28;20053;-77
2023/08/18 03:52:55;;;;;;;11.00;2.90;;;;;;;16.84;100.00;92786.44;5072517;28;20541;-77
2023/08/18 03:55:21;;;;;;;8.82;2.95;;;;;;;16.84;100.00;92789.91;5072581;28;20448;-77
2023/08/18 03:57:46;;;;;;;10.18;3.13;;;;;;;16.82;100.00;92788.66;5073212;28;20036;-77
2023/08/18 04:00:13;;;;;;;9.52;3.00;;;;;;;16.81;100.00;92787.09;5074005;28;20036;-78
2023/08/18 04:02:42;;;;;;;10.02;2.80;;;;;;;16.82;100.00;92791.31;5072776;28;20043;-77
2023/08/18 04:05:12;;;;;;;9.68;2.72;;;;;;;16.80;100.00;92793.50;5072436;28;20550;-77
2023/08/18 04:07:38;;;;;;;7.88;2.80;;;;;;;16.77;100.00;92791.44;5072993;28;20106;-78
2023/08/18 04:10:04;;;;;;;11.27;3.80;;;;;;;16.76;100.00;92795.94;5056787;28;20033;-77
2023/08/18 04:12:30;;;;;;;12.77;2.92;;;;;;;16.76;100.00;92790.66;5073985;28;20494;-77
2023/08/18 04:14:55;;;;;;;10.57;2.90;;;;;;;16.75;100.00;92783.84;5072859;28;20071;-77
2023/08/18 04:17:21;;;;;;;9.05;2.65;;;;;;;16.76;100.00;92790.66;5070814;28;20044;-78
2023/08/18 04:19:47;;;;;;;10.10;2.60;;;;;;;16.79;100.00;92789.25;5072714;28;20414;-77
2023/08/18 04:22:12;;;;;;;9.70;2.60;;;;;;;16.80;100.00;92788.19;5087734;28;20581;-80
2023/08/18 04:24:38;;;;;;;10.93;2.72;;;;;;;16.82;100.00;92786.78;5076249;28;20036;-79
2023/08/18 04:27:04;;;;;;;8.13;2.63;;;;;;;16.82;100.00;92792.06;5076929;28;20428;-80
2023/08/18 04:29:30;;;;;;;12.00;3.28;;;;;;;16.79;100.00;92790.06;5077476;28;20040;-80
2023/08/18 04:31:56;;;;;;;8.57;2.65;;;;;;;16.77;100.00;92797.50;5055935;28;20250;-78
2023/08/18 04:34:21;;;;;;;6.53;3.03;;;;;;;16.76;100.00;92795.19;5076276;28;20032;-79
2023/08/18 04:36:47;;;;;;;11.82;2.97;;;;;;;16.76;100.00;92793.31;5075441;28;20036;-77
2023/08/18 04:39:15;;;;;;;7.70;2.90;;;;;;;16.74;100.00;92792.84;5073199;28;20556;-77
2023/08/18 04:41:41;;;;;;;9.07;3.03;;;;;;;16.76;100.00;92800.47;5073226;28;20028;-79
2023/08/18 04:44:06;;;;;;;8.52;3.10;;;;;;;16.75;100.00;92796.25;5089279;28;20040;-79
2023/08/18 04:46:32;;;;;;;13.95;3.22;;;;;;;16.72;100.00;92787.09;5058212;28;20048;-79
2023/08/18 04:49:03;;;;;;;10.95;3.05;;;;;;;16.76;100.00;92795.94;5057789;28;20554;-84
2023/08/18 04:51:29;;;;;;;9.35;2.70;;;;;;;16.76;100.00;92795.19;5074294;28;20036;-77
2023/08/18 04:53:55;;;;;;;8.40;2.97;;;;;;;16.79;100.00;92799.81;5074819;28;20530;-79
2023/08/18 04:56:21;;;;;;;9.25;2.78;;;;;;;16.83;100.00;92800.78;5075003;28;20043;-79
2023/08/18 04:58:47;;;;;;;9.10;2.67;;;;;;;16.88;100.00;92802.47;5076915;28;20127;-80
2023/08/18 05:01:12;;;;;;;9.30;3.25;;;;;;;16.93;100.00;92804.94;5078708;28;20563;-80
2023/08/18 05:03:38;;;;;;;11.93;2.80;;;;;;;16.95;100.00;92798.22;5071998;28;20578;-80
2023/08/18 05:06:08;;;;;;;11.18;3.00;;;;;;;16.96;100.00;92794.50;5074641;28;20043;-79
2023/08/18 05:08:35;;;;;;;14.70;3.33;;;;;;;17.04;100.00;92795.56;5070777;28;20064;-80
2023/08/18 05:11:09;;;;;;;10.85;2.90;;;;;;;17.09;100.00;92792.75;5078860;28;20025;-80
2023/08/18 05:13:36;;;;;;;8.45;2.80;;;;;;;17.14;100.00;92792.56;5076425;28;20033;-79
2023/08/18 05:16:03;;;;;;;11.60;2.85;;;;;;;17.19;100.00;92792.38;5071623;28;21022;-79
2023/08/18 05:18:29;;;;;;;8.00;2.85;;;;;;;17.26;100.00;92789.22;5077563;28;20055;-81
2023/08/18 05:20:56;;;;;;;9.27;2.65;;;;;;;17.32;100.00;92801.19;5078587;28;20024;-81
2023/08/18 05:23:22;;;;;;;11.07;2.92;;;;;;;17.39;100.00;92800.69;5095671;28;20051;-81
2023/08/18 05:25:48;;;;;;;11.60;3.00;;;;;;;17.48;100.00;92801.41;5080661;28;20039;-82
2023/08/18 05:28:14;;;;;;;8.30;3.15;;;;;;;17.56;100.00;92795.28;5079371;28;20044;-81
2023/08/18 05:30:47;;;;;;;11.55;3.20;;;;;;;17.63;100.00;92792.91;5075491;28;20123;-83
2023/08/18 05:33:13;;;;;;;10.80;3.00;;;;;;;17.74;100.00;92797.78;5078826;28;20040;-82
2023/08/18 05:35:38;;;;;;;14.43;3.60;;;;;;;17.88;100.00;92795.72;5084569;28;20044;-83
2023/08/18 05:38:10;;;;;;;12.57;3.10;;;;;;;17.98;100.00;92795.31;5084713;28;20078;-83
2023/08/18 05:40:46;;;;;;;6.55;2.95;;;;;;;18.09;100.00;92799.09;5082007;28;20067;-82
2023/08/18 05:43:16;;;;;;;8.48;2.90;;;;;;;18.21;100.00;92798.38;5077685;28;20029;-80
2023/08/18 05:45:44;;;;;;;12.85;3.10;;;;;;;18.31;100.00;92802.50;5075647;28;20032;-80
2023/08/18 05:48:10;;;;;;;14.00;3.70;;;;;;;18.44;100.00;92795.34;5074139;28;20386;-78
2023/08/18 05:50:36;;;;;;;12.55;3.00;;;;;;;18.54;100.00;92794.97;5076770;28;20040;-81
2023/08/18 05:53:03;;;;;;;10.65;3.03;;;;;;;18.64;100.00;92788.44;5077101;28;20062;-80
2023/08/18 05:55:30;;;;;;;7.70;3.22;;;;;;;18.78;100.00;92793.47;5074983;28;20043;-80
2023/08/18 05:57:59;;;;;;;7.68;3.17;;;;;;;18.90;100.00;92804.88;5072361;28;20038;-78
2023/08/18 06:00:26;;;;;;;8.07;3.55;;;;;;;19.03;100.00;92794.31;5075226;28;20032;-78
2023/08/18 06:02:53;;;;;;;9.45;3.10;;;;;;;19.14;100.00;92790.09;5071232;28;20044;-78
2023/08/18 06:05:18;;;;;;;12.70;3.17;;;;;;;19.28;100.00;92790.53;5073158;28;20063;-77
2023/08/18 06:07:44;;;;;;;18.75;3.85;;;;;;;19.45;100.00;92799.38;5071912;28;20051;-77
2023/08/18 06:10:11;;;;;;;10.85;3.67;;;;;;;19.62;100.00;92793.06;5071746;28;20111;-77
2023/08/18 06:12:40;;;;;;;12.38;3.00;;;;;;;19.82;100.00;92796.69;5072068;28;20410;-77
2023/08/18 06:15:07;;;;;;;7.80;3.10;;;;;;;20.00;100.00;92800.63;5073602;28;20032;-77
2023/08/18 06:17:33;;;;;;;10.00;2.97;;;;;;;20.36;100.00;92798.97;5073709;28;20055;-78
2023/08/18 06:19:59;;;;;;;12.93;3.22;;;;;;;21.25;95.83;92791.69;5073665;28;20040;-78
2023/08/18 06:22:25;;;;;;;11.98;3.50;;;;;;;22.37;91.67;92800.97;5072914;28;20100;-78
2023/08/18 06:24:50;;;;;;;10.35;3.17;;;;;;;23.38;86.57;92793.56;5075150;28;20128;-78
2023/08/18 06:27:16;;;;;;;14.82;3.10;;;;;;;24.30;77.36;92800.56;5073829;28;20032;-78
2023/08/18 06:29:41;;;;;;;9.25;3.35;;;;;;;25.07;72.31;92804.44;5072469;28;20028;-79
2023/08/18 06:32:07;;;;;;;8.88;2.78;;;;;;;25.71;69.28;92803.41;5057914;28;20076;-79
2023/08/18 06:34:32;;;;;;;9.85;2.90;;;;;;;26.39;66.19;92803.81;5073923;28;20037;-79
2023/08/18 06:36:58;;;;;;;9.02;3.30;;;;;;;26.98;64.29;92811.69;5073792;28;20025;-79
2023/08/18 06:39:24;;;;;;;14.02;3.80;;;;;;;27.34;62.29;92812.50;5075909;28;20043;-79
2023/08/18 06:41:49;;;;;;;8.43;3.20;;;;;;;27.74;62.49;92812.47;5074517;28;20518;-79
2023/08/18 06:44:17;;;;;;;9.68;2.70;;;;;;;28.03;61.33;92805.94;5074043;28;20031;-79
2023/08/18 06:46:43;;;;;;;10.73;3.22;;;;;;;28.03;60.07;92808.63;5075033;28;20032;-79
2023/08/18 06:49:08;;;;;;;8.45;2.70;;;;;;;28.15;59.83;92806.69;5075577;28;20049;-79
2023/08/18 06:51:34;;;;;;;13.00;2.90;;;;;;;27.59;61.80;92809.81;5074974;28;20044;-79
2023/08/18 06:54:00;;;;;;;9.70;2.80;;;;;;;27.36;64.36;92806.75;5075891;28;20039;-79
2023/08/18 06:56:25;;;;;;;13.07;3.15;;;;;;;27.42;62.96;92807.88;5075265;28;20371;-79
2023/08/18 06:58:51;;;;;;;10.50;3.30;;;;;;;26.88;63.68;92809.72;5074909;28;20119;-79
2023/08/18 07:01:16;;;;;;;12.55;3.63;;;;;;;26.31;68.14;92810.28;5074304;28;20574;-79
2023/08/18 07:03:42;;;;;;;8.23;2.67;;;;;;;25.83;71.11;92811.16;5074772;28;20036;-79
2023/08/18 07:06:08;;;;;;;8.68;3.22;;;;;;;25.64;72.42;92816.78;5074616;28;20028;-78
2023/08/18 07:08:34;;;;;;;8.32;2.90;;;;;;;25.82;68.93;92814.97;5074597;28;20055;-79
2023/08/18 07:11:00;;;;;;;8.15;2.80;;;;;;;25.67;69.62;92816.03;5074315;28;20043;-78
2023/08/18 07:13:25;;;;;;;13.82;3.05;;;;;;;25.64;71.59;92819.47;5074402;28;20035;-79
2023/08/18 07:15:52;;;;;;;8.40;3.30;;;;;;;25.26;68.27;92814.19;5090249;28;20024;-79
2023/08/18 07:18:18;;;;;;;9.23;3.15;;;;;;;24.92;74.49;92813.47;5074586;28;20037;-79
2023/08/18 07:20:45;;;;;;;11.98;3.17;;;;;;;24.63;79.57;92815.88;5074634;28;20029;-78
2023/08/18 07:23:11;;;;;;;14.02;3.35;;;;;;;24.78;77.81;92813.34;5073859;28;20039;-78
2023/08/18 07:25:37;;;;;;;8.70;3.15;;;;;;;24.48;81.85;92819.53;5071972;28;20028;-79
2023/08/18 07:28:04;;;;;;;7.63;2.83;;;;;;;24.26;78.38;92821.16;5073613;28;20398;-78
2023/08/18 07:30:29;;;;;;;9.48;3.17;;;;;;;23.92;84.80;92818.41;5073324;28;20115;-79
2023/08/18 07:32:56;;;;;;;11.75;3.50;;;;;;;23.88;83.04;92817.59;5073625;28;20064;-78
2023/08/18 07:35:22;;;;;;;11.32;3.10;;;;;;;23.75;83.15;92813.59;5075065;28;20313;-78
2023/08/18 07:37:48;;;;;;;11.05;3.10;;;;;;;23.88;82.71;92813.00;5076784;28;20036;-79
2023/08/18 07:40:14;;;;;;;9.32;2.88;;;;;;;24.05;79.01;92817.06;5058949;28;20144;-78
2023/08/18 07:42:40;;;;;;;11.18;3.28;;;;;;;24.18;79.54;92825.63;5077014;28;20065;-78
2023/08/18 07:45:06;;;;;;;10.38;2.95;;;;;;;23.86;80.12;92823.28;5076694;28;20028;-78
2023/08/18 07:47:33;;;;;;;15.13;3.08;;;;;;;24.09;80.66;92822.44;5075860;28;20043;-78
2023/08/18 07:49:59;;;;;;;9.25;3.35;;;;;;;23.96;79.73;92815.78;5075519;28;20057;-78
2023/08/18 07:52:25;;;;;;;10.23;3.10;;;;;;;24.01;80.66;92818.91;5075488;28;20405;-79
2023/08/18 07:54:51;;;;;;;14.23;3.10;;;;;;;24.34;70.98;92819.31;5075123;28;20032;-79
2023/08/18 07:57:17;;;;;;;11.52;2.72;;;;;;;24.77;75.22;92822.50;5076117;28;20051;-78
2023/08/18 07:59:42;;;;;;;10.35;2.85;;;;;;;25.09;70.54;92818.25;5075003;28;20112;-78
2023/08/18 08:02:08;;;;;;;10.63;3.15;;;;;;;24.78;72.78;92818.69;5074571;28;20055;-78
2023/08/18 08:04:34;;;;;;;11.43;3.17;;;;;;;24.62;76.15;92819.69;5074728;28;20033;-78
2023/08/18 08:06:59;;;;;;;14.43;3.00;;;;;;;24.57;76.20;92822.69;5076214;28;20127;-78
2023/08/18 08:09:25;;;;;;;12.30;2.90;;;;;;;24.64;76.72;92824.69;5074690;28;20052;-79
2023/08/18 08:11:52;;;;;;;9.93;3.40;;;;;;;24.66;75.52;92819.72;5075923;28;20059;-78
2023/08/18 08:14:19;;;;;;;11.68;3.40;;;;;;;24.82;75.41;92816.84;5077148;28;20023;-78
2023/08/18 08:16:45;;;;;;;10.50;2.95;;;;;;;24.48;76.03;92822.97;5083229;28;20060;-78
2023/08/18 08:19:12;;;;;;;15.63;2.85;;;;;;;24.13;77.36;92812.56;5081028;28;20060;-77
2023/08/18 08:21:38;;;;;;;11.00;3.30;;;;;;;24.41;79.39;92822.06;5075384;28;20052;-78
2023/08/18 08:24:05;;;;;;;8.52;3.50;;;;;;;24.38;79.39;92812.88;5075774;28;20028;-78
2023/08/18 08:26:31;;;;;;;9.85;2.85;;;;;;;24.39;75.00;92816.34;5075168;28;20071;-78
2023/08/18 08:28:57;;;;;;;9.02;2.90;;;;;;;24.49;77.50;92813.03;5075506;28;20032;-78
2023/08/18 08:31:22;;;;;;;9.23;3.10;;;;;;;24.61;77.24;92815.47;5075597;28;20032;-78
2023/08/18 08:33:48;;;;;;;7.72;2.67;;;;;;;24.71;77.10;92817.47;5075720;28;20024;-78
2023/08/18 08:36:14;;;;;;;11.50;2.95;;;;;;;24.59;75.52;92816.94;5075055;28;20040;-78
2023/08/18 08:38:39;;;;;;;12.82;3.22;;;;;;;24.88;76.10;92812.66;5075164;28;20304;-78
2023/08/18 08:41:05;;;;;;;12.85;3.83;;;;;;;24.71;72.93;92814.03;5074949;28;20089;-78
2023/08/18 08:43:31;;;;;;;12.20;3.42;;;;;;;24.61;74.45;92814.69;5074789;28;20020;-78
2023/08/18 08:46:00;;;;;;;8.18;2.83;;;;;;;24.66;73.91;92815.13;5073841;28;20040;-78
2023/08/18 08:48:37;;;;;;;10.57;2.90;;;;;;;24.71;73.41;92812.13;5074305;28;20052;-78
2023/08/18 08:51:11;;;;;;;10.02;2.80;;;;;;;24.74;73.08;92810.63;5074161;28;20337;-78
2023/08/18 08:53:46;;;;;;;7.70;2.83;;;;;;;24.77;73.09;92815.25;5074317;28;20036;-77
2023/08/18 08:56:14;;;;;;;11.85;2.90;;;;;;;24.68;69.66;92817.47;5074702;28;20064;-77
2023/08/18 08:58:40;;;;;;;14.25;3.50;;;;;;;24.86;67.72;92809.63;5074567;28;20030;-77
2023/08/18 09:01:06;;;;;;;9.75;3.65;;;;;;;25.05;67.59;92812.06;5074996;28;20037;-77
2023/08/18 09:03:33;;;;;;;6.68;2.30;;;;;;;25.42;65.18;92813.97;5074530;28;20051;-77
2023/08/18 09:05:59;;;;;;;8.07;2.90;;;;;;;25.39;66.77;92814.69;5074521;28;20036;-78
2023/08/18 09:08:24;;;;;;;9.45;3.10;;;;;;;25.30;71.38;92814.22;5073731;28;20143;-78
2023/08/18 09:10:51;;;;;;;12.32;3.33;;;;;;;25.16;72.49;92812.19;5071360;28;20055;-78
2023/08/18 09:13:16;;;;;;;8.15;2.90;;;;;;;25.27;73.86;92813.06;5073820;28;20039;-78
2023/08/18 09:15:44;;;;;;;7.80;3.20;;;;;;;25.11;73.36;92810.59;5074045;28;20040;-78
2023/08/18 09:18:14;;;;;;;11.35;3.65;;;;;;;25.06;73.28;92810.94;5072596;28;20040;-78
2023/08/18 09:20:44;;;;;;;9.02;3.35;;;;;;;25.31;74.49;92803.16;5072099;28;20121;-78
2023/08/18 09:23:10;;;;;;;8.73;3.05;;;;;;;25.29;73.29;92810.03;5073882;28;20040;-78
2023/08/18 09:25:36;;;;;;;14.07;3.38;;;;;;;25.24;73.34;92810.34;5073987;28;20040;-78
2023/08/18 09:28:05;;;;;;;10.35;3.20;;;;;;;24.88;73.17;92801.97;5073721;28;20032;-78
2023/08/18 09:30:31;;;;;;;12.85;3.30;;;;;;;24.78;76.99;92802.63;5073514;28;20111;-77
2023/08/18 09:33:01;;;;;;;10.35;4.30;;;;;;;24.82;76.66;92803.44;5073245;28;20043;-78
2023/08/18 09:35:33;;;;;;;9.65;3.30;;;;;;;25.04;75.33;92802.50;5074290;28;20086;-78
2023/08/18 09:37:58;;;;;;;9.20;3.28;;;;;;;25.12;77.10;92804.09;5072127;28;20040;-78
2023/08/18 09:40:25;;;;;;;17.65;3.85;;;;;;;25.31;74.91;92802.38;5080576;28;20036;-78
2023/08/18 09:42:51;;;;;;;10.75;3.90;;;;;;;25.68;72.56;92793.44;5073190;28;20047;-77
2023/08/18 09:45:22;;;;;;;10.60;3.47;;;;;;;25.49;72.84;92797.94;5072726;28;20119;-78
2023/08/18 09:47:53;;;;;;;11.90;3.30;;;;;;;25.32;71.41;92795.88;5073320;28;20056;-77
2023/08/18 09:50:23;;;;;;;9.70;4.15;;;;;;;25.40;72.32;92800.16;5073721;28;20078;-78
2023/08/18 09:52:56;;;;;;;14.35;3.22;;;;;;;25.21;70.25;92797.69;5073305;28;20042;-77
2023/08/18 09:55:41;;;;;;;7.55;3.20;;;;;;;25.45;71.16;92797.13;5073680;28;20029;-77
2023/08/18 09:58:19;;;;;;;9.82;3.53;;;;;;;25.57;68.00;92785.34;5071016;28;20046;-78
2023/08/18 10:00:46;;;;;;;10.70;3.33;;;;;;;25.93;67.61;92786.34;5061786;28;20086;-78
2023/08/18 10:03:17;;;;;;;9.48;3.10;;;;;;;25.85;68.25;92787.44;5072152;28;20040;-78
2023/08/18 10:05:44;;;;;;;9.55;3.05;;;;;;;26.12;67.30;92779.16;5073146;28;20486;-78
2023/08/18 10:08:10;;;;;;;9.18;2.80;;;;;;;26.45;65.06;92785.44;5073128;28;20025;-78
2023/08/18 10:10:36;;;;;;;13.07;2.75;;;;;;;26.42;63.86;92786.94;5073446;28;20413;-78
2023/08/18 10:13:04;;;;;;;11.70;2.97;;;;;;;26.14;59.36;92793.75;5073419;28;20036;-77
2023/08/18 10:15:30;;;;;;;7.53;2.78;;;;;;;26.23;61.25;92788.03;5073161;28;20478;-78
2023/08/18 10:17:56;;;;;;;9.38;2.90;;;;;;;26.36;60.30;92783.09;5073060;28;20047;-78
2023/08/18 10:20:26;;;;;;;8.90;2.70;;;;;;;26.42;60.51;92776.22;5071722;28;20037;-78
2023/08/18 10:22:54;;;;;;;11.07;2.70;;;;;;;26.47;60.25;92780.44;5072780;28;20133;-78
2023/08/18 10:25:28;;;;;;;11.70;3.00;;;;;;;26.27;59.20;92780.75;5071885;28;20033;-78
2023/08/18 10:27:54;;;;;;;12.80;2.80;;;;;;;26.08;59.52;92784.50;5073149;28;20120;-78
2023/08/18 10:30:25;;;;;;;15.52;3.15;;;;;;;26.16;62.20;92775.38;5071472;28;20071;-78
2023/08/18 10:32:52;;;;;;;11.05;3.40;;;;;;;26.34;64.22;92774.66;5072719;28;20044;-78
2023/08/18 10:35:22;;;;;;;12.73;3.22;;;;;;;26.34;62.12;92774.66;5073100;28;20394;-78
2023/08/18 10:37:53;;;;;;;9.13;3.33;;;;;;;26.48;65.26;92773.91;5072470;28;20056;-78
2023/08/18 10:40:38;;;;;;;10.73;3.33;;;;;;;26.50;63.59;92775.09;5072452;28;20444;-78
2023/08/18 10:43:08;;;;;;;9.80;3.72;;;;;;;26.64;65.23;92777.09;5071693;28;20516;-78
2023/08/18 10:45:35;;;;;;;11.60;3.40;;;;;;;26.88;62.97;92777.50;5072436;28;20109;-78
2023/08/18 10:48:03;;;;;;;15.75;3.78;;;;;;;26.55;60.60;92769.38;5072437;28;20036;-78
2023/08/18 10:50:39;;;;;;;9.00;3.30;;;;;;;26.98;60.77;92774.84;5072637;28;20538;-78
2023/08/18 10:53:05;;;;;;;15.15;3.20;;;;;;;27.02;63.71;92774.84;5072027;28;20421;-78
2023/08/18 10:55:31;;;;;;;9.82;3.10;;;;;;;26.99;62.71;92773.66;5072576;28;20118;-78
2023/08/18 10:57:57;;;;;;;10.48;3.38;;;;;;;27.09;61.03;92768.69;5088035;28;20024;-78
2023/08/18 11:00:23;;;;;;;12.35;3.60;;;;;;;27.27;61.03;92776.78;5072190;28;20063;-78
2023/08/18 11:02:50;;;;;;;9.90;3.42;;;;;;;27.52;62.25;92766.81;5072335;28;20047;-78
2023/08/18 11:05:21;;;;;;;8.85;3.50;;;;;;;27.56;58.94;92767.56;5088416;28;20383;-79
2023/08/18 11:07:47;;;;;;;10.65;3.28;;;;;;;27.58;60.00;92772.53;5072350;28;20044;-78
2023/08/18 11:10:16;;;;;;;11.15;3.20;;;;;;;27.61;59.04;92771.78;5074419;28;20040;-78
2023/08/18 11:12:43;;;;;;;11.85;3.33;;;;;;;27.64;57.79;92770.25;5076483;28;20032;-78
2023/08/18 11:15:09;;;;;;;11.77;3.40;;;;;;;27.60;59.05;92767.56;5077512;28;20052;-78
2023/08/18 11:17:34;;;;;;;11.00;3.10;;;;;;;27.34;62.61;92768.75;5075256;28;20024;-78
2023/08/18 11:20:00;;;;;;;7.85;2.80;;;;;;;27.27;60.71;92768.72;5076461;28;20028;-78
2023/08/18 11:22:26;;;;;;;11.05;3.10;;;;;;;27.50;61.31;92766.44;5075165;28;20040;-78
2023/08/18 11:24:52;;;;;;;9.82;3.28;;;;;;;27.55;60.71;92766.03;5076141;28;20037;-78